KFAR/FAR METAR and TAF weather

Enter ICAO airport designator
Station Type Date Time Source
KFAR METAR 2018/12/12 11:53 UTC NOAA

KFAR 121153Z 17007KT 1/2SM FZFG VV003 M03/M03 A2971 RMK AO2 SLP075 70025 I6000 T10281028 11022 21028 56006


Station Type Date Time Source
KFAR Decoded METAR 2018/12/12 11:53 UTC NOAA

HECTOR INTERNATIONAL AIRPORT , ND, United States (KFAR) 46-56N 096-49W 277M
Dec 12, 2018 - 06:53 AM EST / 2018.12.12 1153 UTC
Wind: from the S (170 degrees) at 8 MPH (7 KT):0
Visibility: 1/2 mile(s):0
Sky conditions: obscured
Weather: freezing fog
Temperature: 27.0 F (-2.8 C)
Windchill: 19 F (-7 C):1
Dew Point: 27.0 F (-2.8 C)
Relative Humidity: 100%
Pressure (altimeter): 29.71 in. Hg (1006 hPa)
Pressure tendency: 0.02 inches (0.6 hPa) lower than three hours ago
ob: KFAR 121153Z 17007KT 1/2SM FZFG VV003 M03/M03 A2971 RMK AO2 SLP075 70025 I6000 T10281028 11022 21028 56006
cycle: 12

Station Type Date Time Source
KFAR TAF 2018/12/12 12:42 UTC NOAA

TAF KFAR 121139Z 1212/1312 VRB04KT 3/4SM BR OVC003
FM121500 17008KT 2SM BR BKN003
FM121700 17011KT P6SM BKN035
FM122000 17011KT P6SM BKN050
FM130600 24009KT 4SM -SN BKN012
FM131000 25008KT P6SM BKN020


Example: see airport list